createdAt,value
2023-05-22T00:00:07.559Z,52.71
2023-05-22T00:02:38.940Z,52.38
2023-05-22T00:05:10.200Z,52.79
2023-05-22T00:07:39.915Z,53.30
2023-05-22T00:10:09.081Z,52.60
2023-05-22T00:12:37.692Z,52.30
2023-05-22T00:15:07.241Z,52.80
2023-05-22T00:17:37.221Z,53.19
2023-05-22T00:20:08.987Z,52.96
2023-05-22T00:22:38.335Z,53.41
2023-05-22T00:25:08.081Z,53.80
2023-05-22T00:27:36.592Z,53.11
2023-05-22T00:30:06.340Z,53.22
2023-05-22T00:32:34.829Z,53.16
2023-05-22T00:35:04.959Z,53.38
2023-05-22T00:37:33.428Z,53.26
2023-05-22T00:40:01.894Z,53.16
2023-05-22T00:42:30.314Z,53.17
2023-05-22T00:44:58.849Z,53.44
2023-05-22T00:47:27.365Z,54.00
2023-05-22T00:49:56.082Z,53.68
2023-05-22T00:52:26.313Z,53.48
2023-05-22T00:54:55.238Z,53.67
2023-05-22T00:57:24.598Z,53.79
2023-05-22T00:59:53.370Z,53.80
2023-05-22T01:02:23.482Z,53.76
2023-05-22T01:04:53.851Z,53.95
2023-05-22T01:07:23.908Z,54.35
2023-05-22T01:09:53.920Z,54.08
2023-05-22T01:12:28.500Z,54.22
2023-05-22T01:15:05.030Z,54.48
2023-05-22T01:17:46.283Z,54.14
2023-05-22T01:20:24.413Z,54.09
2023-05-22T01:23:16.689Z,54.15
2023-05-22T01:26:04.948Z,54.77
2023-05-22T01:28:48.726Z,54.34
2023-05-22T01:31:20.348Z,54.32
2023-05-22T01:33:51.427Z,54.48
2023-05-22T01:36:23.453Z,54.52
2023-05-22T01:38:53.267Z,54.40
2023-05-22T01:41:22.434Z,54.22
2023-05-22T01:43:50.974Z,54.58
2023-05-22T01:46:20.859Z,54.52
2023-05-22T01:48:49.407Z,54.59
2023-05-22T01:51:24.876Z,54.65
2023-05-22T01:54:00.052Z,54.31
2023-05-22T01:56:38.144Z,54.70
2023-05-22T01:59:15.087Z,54.95
2023-05-22T02:01:46.179Z,54.64
2023-05-22T02:04:17.354Z,54.74
2023-05-22T02:06:46.048Z,54.76
2023-05-22T02:09:16.877Z,54.34
2023-05-22T02:11:45.650Z,54.84
2023-05-22T02:14:14.371Z,55.42
2023-05-22T02:16:47.872Z,55.46
2023-05-22T02:19:16.410Z,55.43
2023-05-22T02:21:44.889Z,56.34
2023-05-22T02:24:14.365Z,57.03
2023-05-22T02:26:43.180Z,56.53
2023-05-22T02:29:12.964Z,57.17
2023-05-22T02:31:41.528Z,57.01
2023-05-22T02:34:11.668Z,57.49
2023-05-22T02:36:40.127Z,56.91
2023-05-22T02:39:08.893Z,56.73
2023-05-22T02:41:37.369Z,57.34
2023-05-22T02:44:06.108Z,57.71
2023-05-22T02:46:34.637Z,57.36
2023-05-22T02:49:03.078Z,57.58
2023-05-22T02:51:33.014Z,56.76
2023-05-22T02:54:01.493Z,57.42
2023-05-22T02:56:29.966Z,57.62
2023-05-22T02:58:58.468Z,58.20
2023-05-22T03:01:30.430Z,57.71
2023-05-22T03:03:59.395Z,57.83
2023-05-22T03:06:28.100Z,57.53
2023-05-22T03:08:58.018Z,57.81
2023-05-22T03:11:26.716Z,57.54
2023-05-22T03:13:55.141Z,57.61
2023-05-22T03:16:23.794Z,57.45
2023-05-22T03:18:53.473Z,57.93
2023-05-22T03:21:21.928Z,58.32
2023-05-22T03:23:50.380Z,59.15
2023-05-22T03:26:20.182Z,58.84
2023-05-22T03:28:50.660Z,59.45
2023-05-22T03:31:19.142Z,59.45
2023-05-22T03:33:47.651Z,59.32
2023-05-22T03:36:17.361Z,59.68
2023-05-22T03:38:45.891Z,59.90
2023-05-22T03:41:14.449Z,59.60
2023-05-22T03:43:45.114Z,60.21
2023-05-22T03:46:13.839Z,60.58
2023-05-22T03:48:42.406Z,60.38
2023-05-22T03:51:10.955Z,59.89
2023-05-22T03:53:39.594Z,60.45
2023-05-22T03:56:08.578Z,60.49
2023-05-22T03:58:37.062Z,61.31
2023-05-22T04:01:10.010Z,61.39
2023-05-22T04:03:38.898Z,61.01
2023-05-22T04:06:07.810Z,61.02
2023-05-22T04:08:36.303Z,61.43
2023-05-22T04:11:05.417Z,61.66
2023-05-22T04:13:33.923Z,61.57
2023-05-22T04:16:04.286Z,61.75
2023-05-22T04:18:34.180Z,62.14
2023-05-22T04:21:02.919Z,61.98
2023-05-22T04:23:31.931Z,61.53
2023-05-22T04:26:02.404Z,61.87
2023-05-22T04:28:31.267Z,61.86
2023-05-22T04:30:59.720Z,62.01
2023-05-22T04:33:29.029Z,62.16
2023-05-22T04:35:58.872Z,61.91
2023-05-22T04:38:27.351Z,62.20
2023-05-22T04:40:55.784Z,61.41
2023-05-22T04:43:26.882Z,61.75
2023-05-22T04:45:56.458Z,61.75
2023-05-22T04:48:25.168Z,61.78
2023-05-22T04:50:54.312Z,62.05
2023-05-22T04:53:24.195Z,62.28
2023-05-22T04:55:52.673Z,62.67
2023-05-22T04:58:21.913Z,62.43
2023-05-22T05:00:52.522Z,62.34
2023-05-22T05:03:22.838Z,62.75
2023-05-22T05:05:51.471Z,62.56
2023-05-22T05:08:20.040Z,62.66
2023-05-22T05:10:49.885Z,62.52
2023-05-22T05:13:18.321Z,63.42
2023-05-22T05:15:46.888Z,63.08
2023-05-22T05:18:15.407Z,63.58
2023-05-22T05:20:44.063Z,63.27
2023-05-22T05:23:12.553Z,63.06
2023-05-22T05:25:40.987Z,63.14
2023-05-22T05:28:12.181Z,63.48
2023-05-22T05:30:41.686Z,63.58
2023-05-22T05:33:10.447Z,64.08
2023-05-22T05:35:41.425Z,64.52
2023-05-22T05:38:11.239Z,64.38
2023-05-22T05:40:40.071Z,64.09
2023-05-22T05:43:10.180Z,64.00
2023-05-22T05:45:38.618Z,64.49
2023-05-22T05:48:07.912Z,64.79
2023-05-22T05:50:36.939Z,65.37
2023-05-22T05:53:06.285Z,66.15
2023-05-22T05:55:34.852Z,66.20
2023-05-22T05:58:03.325Z,65.22
2023-05-22T06:00:33.203Z,64.82
2023-05-22T06:03:01.860Z,65.40
2023-05-22T06:05:30.494Z,65.52
2023-05-22T06:07:59.278Z,64.56
2023-05-22T06:10:27.704Z,65.29
2023-05-22T06:12:56.499Z,65.26
2023-05-22T06:15:24.969Z,65.83
2023-05-22T06:17:54.806Z,65.38
2023-05-22T06:20:25.088Z,65.80
2023-05-22T06:22:53.544Z,65.51
2023-05-22T06:25:23.795Z,65.87
2023-05-22T06:27:52.316Z,65.51
2023-05-22T06:30:31.863Z,65.09
2023-05-22T06:33:10.723Z,64.89
2023-05-22T06:35:39.404Z,65.43
2023-05-22T06:38:07.940Z,65.33
2023-05-22T06:40:36.564Z,64.92
2023-05-22T06:43:05.133Z,65.51
2023-05-22T06:45:33.674Z,64.98
2023-05-22T06:48:02.353Z,65.04
2023-05-22T06:50:32.902Z,64.51
2023-05-22T06:53:01.411Z,63.91
2023-05-22T06:55:29.855Z,64.68
2023-05-22T06:57:58.342Z,65.48
2023-05-22T07:00:26.923Z,64.51
2023-05-22T07:02:55.579Z,64.72
2023-05-22T07:05:24.116Z,64.86
2023-05-22T07:07:54.026Z,65.29
2023-05-22T07:10:22.663Z,64.49
2023-05-22T07:12:51.128Z,64.13
2023-05-22T07:15:19.574Z,64.72
2023-05-22T07:17:48.060Z,64.40
2023-05-22T07:20:16.892Z,64.92
2023-05-22T07:22:45.349Z,64.22
2023-05-22T07:25:15.210Z,63.68
2023-05-22T07:27:43.662Z,64.10
2023-05-22T07:30:13.093Z,64.55
2023-05-22T07:32:41.588Z,64.18
2023-05-22T07:35:11.866Z,64.29
2023-05-22T07:37:41.325Z,64.02
2023-05-22T07:40:11.216Z,63.42
2023-05-22T07:42:41.777Z,63.69
2023-05-22T07:45:11.552Z,62.56
2023-05-22T07:47:40.294Z,62.08
2023-05-22T07:50:10.232Z,62.21
2023-05-22T07:52:38.763Z,61.69
2023-05-22T07:55:08.767Z,61.55
2023-05-22T07:57:37.272Z,61.13
2023-05-22T08:00:13.923Z,61.48
2023-05-22T08:02:43.077Z,61.05
2023-05-22T08:05:12.548Z,61.18
2023-05-22T08:07:41.530Z,60.74
2023-05-22T08:10:16.834Z,61.19
2023-05-22T08:12:45.623Z,61.01
2023-05-22T08:15:15.652Z,61.33
2023-05-22T08:17:44.145Z,59.63
2023-05-22T08:20:13.737Z,59.61
2023-05-22T08:22:42.449Z,58.86
2023-05-22T08:25:11.117Z,58.24
2023-05-22T08:27:39.590Z,58.14
2023-05-22T08:30:09.594Z,56.82
2023-05-22T08:32:39.480Z,56.41
2023-05-22T08:35:08.907Z,55.96
2023-05-22T08:37:37.344Z,55.45
2023-05-22T08:40:08.617Z,55.94
2023-05-22T08:42:37.141Z,55.51
2023-05-22T08:45:07.108Z,54.61
2023-05-22T08:47:36.752Z,54.32
2023-05-22T08:50:09.300Z,54.48
2023-05-22T08:52:48.023Z,53.86
2023-05-22T08:55:19.425Z,53.76
2023-05-22T08:57:48.470Z,54.04
2023-05-22T09:00:18.253Z,53.86
2023-05-22T09:02:48.880Z,53.88
2023-05-22T09:05:18.825Z,53.83
2023-05-22T09:07:48.959Z,53.56
2023-05-22T09:10:17.513Z,51.84
2023-05-22T09:13:07.915Z,51.86
2023-05-22T09:15:37.615Z,51.16
2023-05-22T09:18:07.057Z,51.61
2023-05-22T09:20:40.117Z,50.57
2023-05-22T09:23:17.739Z,50.24
2023-05-22T09:25:47.005Z,50.34
2023-05-22T09:28:15.470Z,50.19
2023-05-22T09:30:44.158Z,49.40
2023-05-22T09:33:14.333Z,49.53
2023-05-22T09:35:45.816Z,48.16
2023-05-22T09:38:14.670Z,47.55
2023-05-22T09:40:43.404Z,48.69
2023-05-22T09:43:12.795Z,48.55
2023-05-22T09:45:41.995Z,47.43
2023-05-22T09:48:12.634Z,47.71
2023-05-22T09:50:41.949Z,47.57
2023-05-22T09:53:12.107Z,48.51
2023-05-22T09:55:41.174Z,49.25
2023-05-22T09:58:13.442Z,48.09
2023-05-22T10:00:43.006Z,46.37
2023-05-22T10:03:12.945Z,46.06
2023-05-22T10:05:47.224Z,46.71
2023-05-22T10:08:22.056Z,47.56
2023-05-22T10:10:52.903Z,47.22
2023-05-22T10:13:22.010Z,46.07
2023-05-22T10:15:51.560Z,46.23
2023-05-22T10:18:20.273Z,45.45
2023-05-22T10:20:49.392Z,44.51
2023-05-22T10:23:20.045Z,44.46
2023-05-22T10:25:48.592Z,45.08
2023-05-22T10:28:24.668Z,43.77
2023-05-22T10:31:01.372Z,43.96
2023-05-22T10:33:35.028Z,43.79
2023-05-22T10:36:06.604Z,42.62
2023-05-22T10:39:12.305Z,42.88
2023-05-22T10:41:41.605Z,43.27
2023-05-22T10:44:10.155Z,42.47
2023-05-22T10:46:38.641Z,42.33
2023-05-22T10:49:07.390Z,41.13
2023-05-22T10:51:36.458Z,41.19
2023-05-22T10:54:06.541Z,41.04
2023-05-22T10:56:36.287Z,41.69
2023-05-22T10:59:08.372Z,42.61
2023-05-22T11:01:38.562Z,40.51
2023-05-22T11:04:15.927Z,40.53
2023-05-22T11:06:46.396Z,39.78
2023-05-22T11:09:34.681Z,38.70
2023-05-22T11:12:31.239Z,38.28
2023-05-22T11:15:03.641Z,37.25
2023-05-22T11:17:33.780Z,36.76
2023-05-22T11:20:06.099Z,37.49
2023-05-22T11:22:36.720Z,35.85
2023-05-22T11:25:09.470Z,35.12
2023-05-22T11:27:39.239Z,34.55
2023-05-22T11:30:09.538Z,34.26
2023-05-22T11:32:38.865Z,33.82
2023-05-22T11:35:09.324Z,34.01
2023-05-22T11:37:41.749Z,32.73
2023-05-22T11:40:14.434Z,33.22
2023-05-22T11:42:42.975Z,33.22
2023-05-22T11:45:12.670Z,34.78
2023-05-22T11:47:41.698Z,34.15
2023-05-22T11:50:11.863Z,33.80
2023-05-22T11:52:42.951Z,34.69
2023-05-22T11:55:12.849Z,34.92
2023-05-22T11:57:41.341Z,34.63
2023-05-22T12:00:11.023Z,34.22
2023-05-22T12:02:39.960Z,33.79
2023-05-22T12:05:11.867Z,33.43
2023-05-22T12:07:40.619Z,32.97
2023-05-22T12:10:09.521Z,31.24
2023-05-22T12:12:39.935Z,30.53
2023-05-22T12:15:09.459Z,29.75
2023-05-22T12:17:38.760Z,29.91
2023-05-22T12:20:08.323Z,28.75
2023-05-22T12:22:43.026Z,29.23
2023-05-22T12:25:15.520Z,28.57
2023-05-22T12:27:46.456Z,29.54
2023-05-22T12:30:16.329Z,29.92
2023-05-22T12:32:49.093Z,30.47
2023-05-22T12:35:18.402Z,31.06
2023-05-22T12:37:50.812Z,30.63
2023-05-22T12:40:19.371Z,30.73
2023-05-22T12:42:49.665Z,29.82
2023-05-22T12:45:18.814Z,29.20
2023-05-22T12:47:47.420Z,30.01
2023-05-22T12:50:16.222Z,28.89
2023-05-22T12:52:45.085Z,27.75
2023-05-22T12:55:13.608Z,27.58
2023-05-22T12:57:42.205Z,27.98
2023-05-22T13:00:13.441Z,27.79
2023-05-22T13:02:42.575Z,27.58
2023-05-22T13:05:11.192Z,28.44
2023-05-22T13:07:39.861Z,28.29
2023-05-22T13:10:09.585Z,26.45
2023-05-22T13:12:38.116Z,27.01
2023-05-22T13:15:07.721Z,25.86
2023-05-22T13:17:37.560Z,25.63
2023-05-22T13:20:11.455Z,25.75
2023-05-22T13:22:40.270Z,25.04
2023-05-22T13:25:09.710Z,24.53
2023-05-22T13:27:38.293Z,25.68
2023-05-22T13:30:07.965Z,25.33
2023-05-22T13:32:37.920Z,24.54
2023-05-22T13:35:07.531Z,25.44
2023-05-22T13:37:36.035Z,25.47
2023-05-22T13:40:05.016Z,24.03
2023-05-22T13:42:33.644Z,24.23
2023-05-22T13:45:02.216Z,23.52
2023-05-22T13:47:31.135Z,23.22
2023-05-22T13:50:01.006Z,22.91
2023-05-22T13:52:29.567Z,22.89
2023-05-22T13:54:58.280Z,23.18
2023-05-22T13:57:26.820Z,23.38
2023-05-22T13:59:55.712Z,23.69
2023-05-22T14:02:24.649Z,23.55
2023-05-22T14:04:53.205Z,24.37
2023-05-22T14:07:23.732Z,23.57
2023-05-22T14:09:52.237Z,23.46
2023-05-22T14:12:20.793Z,24.42
2023-05-22T14:14:49.419Z,25.52
2023-05-22T14:17:18.005Z,25.58
2023-05-22T14:19:46.876Z,26.79
2023-05-22T14:22:15.469Z,25.80
2023-05-22T14:24:45.350Z,25.09
2023-05-22T14:27:13.869Z,25.06
2023-05-22T14:29:42.811Z,25.99
2023-05-22T14:32:11.470Z,26.03
2023-05-22T14:34:40.001Z,25.92
2023-05-22T14:37:11.654Z,26.33
2023-05-22T14:39:40.117Z,25.20
2023-05-22T14:42:10.190Z,24.69
2023-05-22T14:44:38.786Z,24.46
2023-05-22T14:47:07.438Z,24.02
2023-05-22T14:49:35.964Z,23.51
2023-05-22T14:52:04.558Z,23.80
2023-05-22T14:54:34.751Z,24.04
2023-05-22T14:57:03.523Z,24.65
2023-05-22T14:59:33.997Z,24.81
2023-05-22T15:02:02.527Z,25.31
2023-05-22T15:04:31.483Z,24.64
2023-05-22T15:07:00.034Z,23.65
2023-05-22T15:09:28.581Z,24.50
2023-05-22T15:11:57.048Z,24.61
2023-05-22T15:14:25.612Z,25.13
2023-05-22T15:16:55.554Z,23.83
2023-05-22T15:19:25.006Z,24.25
2023-05-22T15:21:54.639Z,24.13
2023-05-22T15:24:23.771Z,24.09
2023-05-22T15:26:52.202Z,23.43
2023-05-22T15:29:20.831Z,22.90
2023-05-22T15:31:49.425Z,23.84
2023-05-22T15:34:19.371Z,24.01
2023-05-22T15:36:47.987Z,24.42
2023-05-22T15:39:16.810Z,24.77
2023-05-22T15:41:54.612Z,23.95
2023-05-22T15:44:31.243Z,24.02
2023-05-22T15:46:59.804Z,23.79
2023-05-22T15:49:31.357Z,24.48
2023-05-22T15:52:00.311Z,25.58
2023-05-22T15:54:28.935Z,25.78
2023-05-22T15:56:57.476Z,26.45
2023-05-22T15:59:25.971Z,26.23
2023-05-22T16:01:54.465Z,25.75
2023-05-22T16:04:23.509Z,26.58
2023-05-22T16:06:53.756Z,26.57
2023-05-22T16:09:22.532Z,26.86
2023-05-22T16:11:51.375Z,27.16
2023-05-22T16:14:20.080Z,27.99
2023-05-22T16:16:48.789Z,27.42
2023-05-22T16:19:17.515Z,27.45
2023-05-22T16:21:46.408Z,27.18
2023-05-22T16:24:20.932Z,27.02
2023-05-22T16:26:49.551Z,27.40
2023-05-22T16:29:20.455Z,27.28
2023-05-22T16:31:49.402Z,27.35
2023-05-22T16:34:17.957Z,27.45
2023-05-22T16:36:46.578Z,27.62
2023-05-22T16:39:15.763Z,28.51
2023-05-22T16:41:45.692Z,28.14
2023-05-22T16:44:14.270Z,28.95
2023-05-22T16:46:42.856Z,28.44
2023-05-22T16:49:11.296Z,28.84
2023-05-22T16:51:39.763Z,28.93
2023-05-22T16:54:08.373Z,28.70
2023-05-22T16:56:37.552Z,29.26
2023-05-22T16:59:07.417Z,29.24
2023-05-22T17:01:36.091Z,29.18
2023-05-22T17:04:04.776Z,29.66
2023-05-22T17:06:33.388Z,29.41
2023-05-22T17:09:01.891Z,29.35
2023-05-22T17:11:30.651Z,29.01
2023-05-22T17:13:59.106Z,29.38
2023-05-22T17:16:28.942Z,29.27
2023-05-22T17:18:57.890Z,29.61
2023-05-22T17:21:27.560Z,29.96
2023-05-22T17:23:56.339Z,29.96
2023-05-22T17:26:24.976Z,33.89
2023-05-22T17:28:53.673Z,31.96
2023-05-22T17:31:22.840Z,30.79
2023-05-22T17:33:52.893Z,30.97
2023-05-22T17:36:21.500Z,34.93
2023-05-22T17:38:50.081Z,35.72
2023-05-22T17:41:18.661Z,37.62
2023-05-22T17:43:47.223Z,34.24
2023-05-22T17:46:15.711Z,42.37
2023-05-22T17:48:44.262Z,40.13
2023-05-22T17:51:14.221Z,40.20
2023-05-22T17:53:43.497Z,41.20
2023-05-22T17:56:12.084Z,43.28
2023-05-22T17:58:40.708Z,41.40
2023-05-22T18:01:09.197Z,41.31
2023-05-22T18:03:38.064Z,37.80
2023-05-22T18:06:07.109Z,37.83
2023-05-22T18:08:37.099Z,40.32
2023-05-22T18:11:06.241Z,40.88
2023-05-22T18:13:34.937Z,40.95
2023-05-22T18:16:04.513Z,39.41
2023-05-22T18:18:33.100Z,39.08
2023-05-22T18:21:01.650Z,39.69
2023-05-22T18:23:30.128Z,40.63
2023-05-22T18:26:02.145Z,37.95
2023-05-22T18:28:30.623Z,41.33
2023-05-22T18:30:59.073Z,41.22
2023-05-22T18:33:27.749Z,40.40
2023-05-22T18:35:57.757Z,40.32
2023-05-22T18:38:27.256Z,39.58
2023-05-22T18:40:56.495Z,38.70
2023-05-22T18:43:28.248Z,40.59
2023-05-22T18:45:57.642Z,37.66
2023-05-22T18:48:27.251Z,39.48
2023-05-22T18:50:57.450Z,36.47
2023-05-22T18:53:27.324Z,36.80
2023-05-22T18:55:55.876Z,38.79
2023-05-22T18:58:24.433Z,38.53
2023-05-22T19:00:55.659Z,37.77
2023-05-22T19:03:25.131Z,38.50
2023-05-22T19:05:53.832Z,36.32
2023-05-22T19:08:24.897Z,36.08
2023-05-22T19:10:53.889Z,37.37
2023-05-22T19:13:22.370Z,38.03
2023-05-22T19:15:51.066Z,37.90
2023-05-22T19:18:20.962Z,37.58
2023-05-22T19:20:49.492Z,38.10
2023-05-22T19:23:17.997Z,36.86
2023-05-22T19:25:46.698Z,37.14
2023-05-22T19:28:15.670Z,36.89
2023-05-22T19:30:44.561Z,38.35
2023-05-22T19:33:14.780Z,36.31
2023-05-22T19:35:44.781Z,37.92
2023-05-22T19:38:13.506Z,36.90
2023-05-22T19:40:42.151Z,36.45
2023-05-22T19:43:10.973Z,38.20
2023-05-22T19:45:39.508Z,37.27
2023-05-22T19:48:08.116Z,37.21
2023-05-22T19:50:36.746Z,38.53
2023-05-22T19:53:06.791Z,38.20
2023-05-22T19:55:35.286Z,37.61
2023-05-22T19:58:04.075Z,38.75
2023-05-22T20:00:33.466Z,37.80
2023-05-22T20:03:02.311Z,37.40
2023-05-22T20:05:30.966Z,38.67
2023-05-22T20:07:59.502Z,37.76
2023-05-22T20:10:30.101Z,37.67
2023-05-22T20:12:59.826Z,38.12
2023-05-22T20:15:28.348Z,37.99
2023-05-22T20:17:57.875Z,38.06
2023-05-22T20:20:26.483Z,38.42
2023-05-22T20:22:55.096Z,39.03
2023-05-22T20:25:23.773Z,39.56
2023-05-22T20:27:54.247Z,39.20
2023-05-22T20:30:22.749Z,39.88
2023-05-22T20:32:52.059Z,40.40
2023-05-22T20:35:22.311Z,39.91
2023-05-22T20:37:53.437Z,40.14
2023-05-22T20:40:22.379Z,40.52
2023-05-22T20:42:53.179Z,41.15
2023-05-22T20:45:23.082Z,41.09
2023-05-22T20:47:52.113Z,41.47
2023-05-22T20:50:21.027Z,42.07
2023-05-22T20:52:49.542Z,43.00
2023-05-22T20:55:18.004Z,43.20
2023-05-22T20:57:46.451Z,42.55
2023-05-22T21:00:15.396Z,42.87
2023-05-22T21:02:45.482Z,42.94
2023-05-22T21:05:13.926Z,43.73
2023-05-22T21:07:42.442Z,43.59
2023-05-22T21:10:12.050Z,44.14
2023-05-22T21:12:40.502Z,43.93
2023-05-22T21:15:10.201Z,43.76
2023-05-22T21:17:39.162Z,43.74
2023-05-22T21:20:09.801Z,43.75
2023-05-22T21:22:38.468Z,44.16
2023-05-22T21:25:07.977Z,44.07
2023-05-22T21:27:36.479Z,44.07
2023-05-22T21:30:05.377Z,43.96
2023-05-22T21:32:33.866Z,44.51
2023-05-22T21:35:02.311Z,44.51
2023-05-22T21:37:32.146Z,44.55
2023-05-22T21:40:01.556Z,44.37
2023-05-22T21:42:41.968Z,44.25
2023-05-22T21:45:15.056Z,45.23
2023-05-22T21:47:43.592Z,44.78
2023-05-22T21:50:12.679Z,44.64
2023-05-22T21:52:44.194Z,45.05
2023-05-22T21:55:12.725Z,45.48
2023-05-22T21:57:41.317Z,45.42
2023-05-22T22:00:10.822Z,45.14
2023-05-22T22:02:41.863Z,45.88
2023-05-22T22:05:11.604Z,45.73
2023-05-22T22:07:39.960Z,45.25
2023-05-22T22:10:10.452Z,45.75
2023-05-22T22:12:38.789Z,45.72
2023-05-22T22:15:08.299Z,46.54
2023-05-22T22:17:37.252Z,46.17
2023-05-22T22:20:07.266Z,46.28
2023-05-22T22:22:35.808Z,46.83
2023-05-22T22:25:04.470Z,46.66
2023-05-22T22:27:34.392Z,46.73
2023-05-22T22:30:02.810Z,46.89
2023-05-22T22:32:31.594Z,47.03
2023-05-22T22:35:00.119Z,47.62
2023-05-22T22:37:28.575Z,47.87
2023-05-22T22:39:57.037Z,48.42
2023-05-22T22:42:26.636Z,48.63
2023-05-22T22:44:56.471Z,48.34
2023-05-22T22:47:25.125Z,48.81
2023-05-22T22:49:53.678Z,48.60
2023-05-22T22:52:22.069Z,49.23
2023-05-22T22:54:50.551Z,48.72
2023-05-22T22:57:19.025Z,49.60
2023-05-22T22:59:47.451Z,48.61
2023-05-22T23:02:17.191Z,48.95
2023-05-22T23:04:45.686Z,49.04
2023-05-22T23:07:14.089Z,49.19
2023-05-22T23:09:42.514Z,49.20
2023-05-22T23:12:10.914Z,49.43
2023-05-22T23:14:39.273Z,49.30
2023-05-22T23:17:07.662Z,49.73
2023-05-22T23:19:37.458Z,50.19
2023-05-22T23:22:06.019Z,49.94
2023-05-22T23:24:34.519Z,50.23
2023-05-22T23:27:02.977Z,50.26
2023-05-22T23:29:31.436Z,50.13
2023-05-22T23:31:59.976Z,50.36
2023-05-22T23:34:28.554Z,50.50
2023-05-22T23:36:58.346Z,50.52
2023-05-22T23:43:14.753Z,51.04
2023-05-22T23:45:43.209Z,51.14
2023-05-22T23:48:11.567Z,51.33
2023-05-22T23:50:39.900Z,50.92
2023-05-22T23:53:09.655Z,51.74
2023-05-22T23:55:38.134Z,51.34
2023-05-22T23:58:06.728Z,51.54
